Time;durP1;ratioP1;P1;durP2;ratioP2;P2;SDS_P1;SDS_P2;PMS_P1;PMS_P2;Temp;Humidity;BMP_temperature;BMP_pressure;BME280_temperature;BME280_humidity;BME280_pressure;Samples;Min_cycle;Max_cycle;Signal;HPM_P1;HPM_P2
2022/08/19 00:00:29;;;;;;;8.95;4.00;;;;;;;28.36;43.05;98437.31;6189553;23;20529;-93
2022/08/19 00:02:55;;;;;;;5.53;3.58;;;;;;;28.35;43.94;98435.66;6215759;23;20160;-91
2022/08/19 00:05:21;;;;;;;7.05;3.85;;;;;;;28.28;44.36;98446.44;6215575;23;20174;-91
2022/08/19 00:07:48;;;;;;;6.80;3.50;;;;;;;28.23;45.06;98442.72;6215750;23;20150;-91
2022/08/19 00:10:15;;;;;;;6.05;3.88;;;;;;;28.23;44.86;98440.03;6189764;23;20162;-93
2022/08/19 00:12:41;;;;;;;10.13;3.65;;;;;;;28.25;45.10;98441.47;6189996;23;20165;-92
2022/08/19 00:15:12;;;;;;;6.68;3.40;;;;;;;28.25;45.57;98440.66;6215857;23;20530;-92
2022/08/19 00:17:45;;;;;;;5.32;3.35;;;;;;;28.25;45.52;98433.38;6189693;23;20149;-91
2022/08/19 00:20:16;;;;;;;7.28;3.60;;;;;;;28.24;45.77;98441.69;6190033;23;20542;-92
2022/08/19 00:22:43;;;;;;;6.70;4.10;;;;;;;28.22;45.97;98443.78;6191412;23;20150;-94
2022/08/19 00:25:09;;;;;;;6.10;3.22;;;;;;;28.27;45.99;98443.97;6191306;23;20196;-92
2022/08/19 00:27:34;;;;;;;5.72;3.80;;;;;;;28.26;46.00;98439.59;6191193;23;20240;-93
2022/08/19 00:30:01;;;;;;;6.72;3.67;;;;;;;28.25;45.96;98433.38;6191530;23;20741;-93
2022/08/19 00:32:27;;;;;;;8.40;3.70;;;;;;;28.14;46.51;98433.22;6191657;23;20158;-91
2022/08/19 00:34:53;;;;;;;5.47;3.47;;;;;;;28.13;46.19;98436.94;6191205;23;20238;-93
2022/08/19 00:37:22;;;;;;;6.53;3.75;;;;;;;28.15;45.88;98433.00;6191254;23;20161;-93
2022/08/19 00:39:49;;;;;;;7.43;4.05;;;;;;;28.11;46.33;98433.63;6191434;23;20472;-92
2022/08/19 00:42:15;;;;;;;5.88;3.58;;;;;;;28.06;46.63;98430.72;6191178;23;20570;-92
2022/08/19 00:44:41;;;;;;;8.15;4.28;;;;;;;28.07;46.43;98430.50;6191079;23;20186;-92
2022/08/19 00:47:06;;;;;;;7.50;3.60;;;;;;;28.09;45.89;98430.31;6191051;23;20181;-92
2022/08/19 00:49:41;;;;;;;7.25;3.90;;;;;;;28.11;46.61;98437.16;6191188;23;20577;-92
2022/08/19 00:52:11;;;;;;;7.20;4.03;;;;;;;28.09;46.48;98438.41;6191139;23;20172;-93
2022/08/19 00:54:38;;;;;;;6.50;3.72;;;;;;;28.07;46.70;98435.91;6191223;23;20276;-92
2022/08/19 00:57:09;;;;;;;7.63;3.50;;;;;;;28.07;47.05;98432.41;6217317;23;20146;-92
2022/08/19 00:59:37;;;;;;;7.00;3.92;;;;;;;28.08;47.04;98440.25;6191097;23;20204;-92
2022/08/19 01:02:03;;;;;;;6.75;3.47;;;;;;;28.11;46.90;98437.16;6191004;23;20484;-92
2022/08/19 01:04:28;;;;;;;9.35;4.07;;;;;;;28.10;46.90;98440.88;6190736;23;20508;-91
2022/08/19 01:06:55;;;;;;;6.65;3.35;;;;;;;27.98;47.04;98437.97;6216996;23;20161;-92
2022/08/19 01:09:21;;;;;;;6.32;3.50;;;;;;;27.90;47.54;98437.34;6190852;23;20158;-92
2022/08/19 01:11:47;;;;;;;6.50;3.20;;;;;;;27.93;46.95;98439.63;6217138;23;20459;-92
2022/08/19 01:14:13;;;;;;;7.57;3.83;;;;;;;27.81;47.71;98434.00;6217012;23;20146;-90
2022/08/19 01:16:40;;;;;;;8.95;3.47;;;;;;;27.79;47.79;98436.09;6190747;23;20188;-91
2022/08/19 01:19:27;;;;;;;7.95;4.47;;;;;;;27.72;47.92;98440.66;6190854;23;20181;-92
2022/08/19 01:22:02;;;;;;;7.55;3.83;;;;;;;27.69;48.27;98441.06;6190736;23;20200;-91
2022/08/19 01:24:27;;;;;;;6.15;3.75;;;;;;;27.72;47.95;98435.28;6217634;23;20171;-90
2022/08/19 01:26:54;;;;;;;7.03;3.70;;;;;;;27.66;48.17;98435.25;6216882;23;20228;-92
2022/08/19 01:29:20;;;;;;;5.10;3.42;;;;;;;27.58;48.70;98432.75;6191104;23;20215;-93
2022/08/19 01:31:46;;;;;;;7.68;3.50;;;;;;;27.55;48.75;98439.38;6190620;23;20166;-93
2022/08/19 01:34:11;;;;;;;6.85;3.72;;;;;;;27.53;48.61;98441.47;6217548;23;20177;-92
2022/08/19 01:36:41;;;;;;;6.30;3.85;;;;;;;27.44;48.96;98437.28;6190685;23;20227;-92
2022/08/19 01:39:10;;;;;;;7.28;4.20;;;;;;;27.39;49.20;98445.13;6190745;23;20166;-93
2022/08/19 01:41:36;;;;;;;6.57;3.15;;;;;;;27.39;49.01;98447.81;6190525;23;20193;-91
2022/08/19 01:44:03;;;;;;;6.45;2.88;;;;;;;27.35;48.79;98436.63;6191817;23;20154;-92
2022/08/19 01:46:31;;;;;;;5.55;3.60;;;;;;;27.35;48.61;98443.88;6190865;23;20264;-92
2022/08/19 01:48:56;;;;;;;8.20;3.78;;;;;;;27.36;48.73;98435.59;6190712;23;20157;-90
2022/08/19 01:51:22;;;;;;;6.18;3.45;;;;;;;27.31;48.86;98446.13;6190782;23;20315;-91
2022/08/19 01:53:49;;;;;;;6.32;3.45;;;;;;;27.26;49.18;98445.91;6190653;23;20158;-92
2022/08/19 01:56:15;;;;;;;7.15;4.10;;;;;;;27.27;48.69;98444.06;6216609;23;20148;-93
2022/08/19 01:58:50;;;;;;;10.20;3.92;;;;;;;27.18;49.11;98435.34;6190416;23;20161;-92
2022/08/19 02:01:16;;;;;;;8.75;4.43;;;;;;;27.10;49.13;98440.06;6190458;23;20216;-91
2022/08/19 02:03:42;;;;;;;6.10;3.30;;;;;;;27.09;49.02;98431.19;6217042;23;20145;-92
2022/08/19 02:06:07;;;;;;;7.28;4.05;;;;;;;27.10;49.26;98438.22;6190426;23;20188;-92
2022/08/19 02:08:36;;;;;;;7.17;3.60;;;;;;;27.01;49.93;98447.50;6190712;23;20164;-92
2022/08/19 02:11:02;;;;;;;7.45;3.92;;;;;;;26.94;50.35;98441.25;6190586;23;20161;-93
2022/08/19 02:13:28;;;;;;;6.63;3.63;;;;;;;26.89;50.78;98446.41;6190207;23;20588;-92
2022/08/19 02:15:53;;;;;;;11.07;4.05;;;;;;;26.81;51.21;98457.34;6189970;23;20150;-94
2022/08/19 02:18:19;;;;;;;7.00;3.83;;;;;;;26.86;51.33;98454.88;6190372;23;20153;-92
2022/08/19 02:20:46;;;;;;;6.53;3.63;;;;;;;26.86;51.38;98467.50;6190329;23;20292;-92
2022/08/19 02:23:13;;;;;;;6.67;3.67;;;;;;;26.85;51.13;98464.00;6190263;23;20149;-92
2022/08/19 02:25:39;;;;;;;6.93;3.63;;;;;;;26.79;50.78;98464.78;6190175;23;20200;-92
2022/08/19 02:28:05;;;;;;;5.70;3.70;;;;;;;26.69;50.94;98465.13;6216332;23;20573;-92
2022/08/19 02:30:31;;;;;;;7.20;3.67;;;;;;;26.73;50.21;98462.84;6190264;23;20162;-93
2022/08/19 02:32:57;;;;;;;5.50;3.57;;;;;;;26.69;50.60;98467.81;6190196;23;20479;-93
2022/08/19 02:35:23;;;;;;;8.43;3.60;;;;;;;26.62;51.66;98474.19;6190130;23;20203;-92
2022/08/19 02:40:34;;;;;;;5.43;3.30;;;;;;;26.58;52.49;98472.91;6216872;23;20144;-92
2022/08/19 02:43:01;;;;;;;7.15;3.75;;;;;;;26.53;52.27;98470.81;6189801;23;20149;-92
2022/08/19 02:45:31;;;;;;;7.37;3.90;;;;;;;26.43;54.08;98474.88;6190006;23;20605;-93
2022/08/19 02:47:57;;;;;;;8.70;4.23;;;;;;;26.49;53.37;98480.31;6190413;23;20704;-91
2022/08/19 02:50:22;;;;;;;7.90;3.70;;;;;;;26.50;54.22;98487.34;6189859;23;20173;-92
2022/08/19 02:52:48;;;;;;;8.13;4.60;;;;;;;26.53;54.31;98492.31;6216462;23;20213;-92
2022/08/19 02:55:13;;;;;;;7.03;3.80;;;;;;;26.51;54.41;98488.16;6216137;23;20153;-92
2022/08/19 02:57:39;;;;;;;6.30;3.67;;;;;;;26.52;54.22;98495.22;6190226;23;20525;-92
2022/08/19 03:00:07;;;;;;;6.97;3.97;;;;;;;26.49;53.93;98495.59;6190073;23;20223;-92
2022/08/19 03:02:33;;;;;;;7.40;3.97;;;;;;;26.49;53.58;98500.97;6189994;23;20241;-92
2022/08/19 03:04:58;;;;;;;7.13;3.43;;;;;;;26.42;53.77;98500.94;6189777;23;20621;-93
2022/08/19 03:07:23;;;;;;;5.33;3.17;;;;;;;26.41;53.62;98501.13;6190106;23;20264;-92
2022/08/19 03:09:49;;;;;;;7.17;4.03;;;;;;;26.34;53.99;98503.75;6189889;23;20146;-93
2022/08/19 03:12:14;;;;;;;7.07;3.57;;;;;;;26.33;54.20;98501.28;6216066;23;20647;-92
2022/08/19 03:14:40;;;;;;;7.57;4.47;;;;;;;26.30;54.11;98496.28;6189955;23;20154;-93
2022/08/19 03:17:06;;;;;;;6.87;4.07;;;;;;;26.29;54.23;98495.47;6189942;23;20224;-91
2022/08/19 03:19:32;;;;;;;7.60;3.83;;;;;;;26.19;54.71;98506.56;6216328;23;20566;-92
2022/08/19 03:21:58;;;;;;;7.83;3.27;;;;;;;26.22;54.25;98508.84;6216008;23;20212;-92
2022/08/19 03:24:24;;;;;;;9.00;3.93;;;;;;;26.21;54.14;98503.66;6189792;23;20157;-94
2022/08/19 03:26:57;;;;;;;11.00;3.73;;;;;;;26.22;54.02;98513.41;6189980;23;20574;-93
2022/08/19 03:29:23;;;;;;;9.17;4.03;;;;;;;26.20;54.30;98521.63;6190250;23;20142;-93
2022/08/19 03:31:51;;;;;;;8.60;4.20;;;;;;;26.06;54.63;98511.78;6189824;23;20154;-92
2022/08/19 03:34:29;;;;;;;7.57;4.57;;;;;;;25.96;55.14;98516.66;6189803;23;20236;-94
2022/08/19 03:36:57;;;;;;;9.20;3.60;;;;;;;25.91;55.40;98524.47;6190045;23;20563;-93
2022/08/19 03:39:25;;;;;;;7.07;3.57;;;;;;;25.92;55.54;98527.97;6189907;23;20161;-91
2022/08/19 03:41:52;;;;;;;8.27;4.33;;;;;;;25.96;55.11;98527.41;6189884;23;20158;-93
2022/08/19 03:44:21;;;;;;;12.97;4.40;;;;;;;26.01;55.04;98532.19;6215800;23;20153;-93
2022/08/19 03:46:56;;;;;;;9.77;4.03;;;;;;;26.08;54.34;98530.38;6189786;23;20157;-93
2022/08/19 03:49:23;;;;;;;8.87;4.20;;;;;;;26.02;54.24;98531.97;6189850;23;20145;-92
2022/08/19 03:51:50;;;;;;;6.67;3.90;;;;;;;26.01;54.43;98541.09;6189687;23;20463;-93
2022/08/19 03:54:18;;;;;;;7.20;4.10;;;;;;;25.97;54.65;98542.47;6190405;23;20158;-92
2022/08/19 03:56:45;;;;;;;7.30;4.63;;;;;;;25.98;54.68;98537.94;6191746;23;20228;-93
2022/08/19 03:59:24;;;;;;;13.50;3.93;;;;;;;25.95;54.23;98541.84;6191598;23;20154;-92
2022/08/19 04:01:50;;;;;;;5.90;3.63;;;;;;;26.00;54.09;98544.78;6191708;23;20138;-92
2022/08/19 04:04:16;;;;;;;8.70;4.27;;;;;;;26.04;54.59;98546.06;6217767;23;20149;-92
2022/08/19 04:06:43;;;;;;;7.30;3.60;;;;;;;26.06;54.43;98544.03;6191662;23;20603;-93
2022/08/19 04:09:10;;;;;;;6.17;3.70;;;;;;;26.01;54.86;98551.00;6217813;23;20146;-92
2022/08/19 04:11:42;;;;;;;9.90;4.60;;;;;;;26.03;55.07;98541.72;6191639;23;20237;-92
2022/08/19 04:14:14;;;;;;;18.77;6.60;;;;;;;26.03;55.24;98551.63;6191705;23;20170;-93
2022/08/19 04:16:39;;;;;;;12.60;5.97;;;;;;;26.08;55.27;98552.72;6191393;23;20196;-92
2022/08/19 04:19:06;;;;;;;13.80;5.50;;;;;;;26.09;55.65;98553.53;6217611;23;20524;-91
2022/08/19 04:21:33;;;;;;;9.47;4.67;;;;;;;26.14;55.75;98551.97;6191236;23;20158;-93
2022/08/19 04:23:59;;;;;;;9.20;4.50;;;;;;;26.19;55.95;98559.44;6191544;23;20153;-92
2022/08/19 04:26:33;;;;;;;8.83;4.83;;;;;;;26.19;55.95;98554.91;6217759;23;20180;-92
2022/08/19 04:29:01;;;;;;;8.17;4.67;;;;;;;26.32;55.69;98553.34;6191379;23;20149;-92
2022/08/19 04:31:30;;;;;;;8.90;4.37;;;;;;;26.40;55.55;98547.84;6191609;23;20150;-92
2022/08/19 04:33:57;;;;;;;10.27;4.37;;;;;;;26.51;55.18;98555.38;6191474;23;20200;-93
2022/08/19 04:36:29;;;;;;;10.13;4.57;;;;;;;26.69;54.67;98539.56;6191364;23;20153;-92
2022/08/19 04:38:57;;;;;;;9.00;4.30;;;;;;;26.77;54.71;98545.66;6217457;23;20142;-92
2022/08/19 04:44:07;;;;;;;8.63;4.17;;;;;;;26.84;55.32;98543.00;6218055;23;20141;-91
2022/08/19 04:46:33;;;;;;;6.40;3.75;;;;;;;27.00;55.03;98552.59;6191225;23;20185;-91
2022/08/19 04:49:00;;;;;;;11.67;5.00;;;;;;;27.14;55.02;98549.78;6191146;23;20157;-92
2022/08/19 04:51:25;;;;;;;7.80;4.47;;;;;;;27.16;55.29;98544.19;6191110;23;20227;-92
2022/08/19 04:53:52;;;;;;;8.30;4.03;;;;;;;27.19;54.89;98551.88;6191143;23;20162;-91
2022/08/19 04:56:22;;;;;;;8.35;4.20;;;;;;;27.23;55.13;98553.13;6191199;23;20154;-93
2022/08/19 04:58:50;;;;;;;9.40;4.22;;;;;;;27.34;55.00;98550.69;6217664;23;20622;-91
2022/08/19 05:01:23;;;;;;;8.63;4.20;;;;;;;27.39;55.05;98550.97;6191053;23;20485;-92
2022/08/19 05:03:49;;;;;;;11.00;4.75;;;;;;;27.43;54.43;98544.16;6217453;23;20228;-91
2022/08/19 05:06:16;;;;;;;11.57;4.20;;;;;;;27.56;54.41;98547.91;6216646;23;20177;-93
2022/08/19 05:08:43;;;;;;;7.13;4.00;;;;;;;27.57;54.02;98552.28;6217771;23;20505;-92
2022/08/19 05:11:15;;;;;;;7.03;4.37;;;;;;;27.68;54.90;98551.66;6191082;23;20150;-92
2022/08/19 05:13:42;;;;;;;10.38;4.15;;;;;;;27.81;54.45;98540.91;6217486;23;20130;-91
2022/08/19 05:16:10;;;;;;;7.20;4.00;;;;;;;27.97;53.63;98551.31;6190896;23;20162;-91
2022/08/19 05:24:14;;;;;;;6.93;4.05;;;;;;;28.38;52.30;98553.88;6217830;23;20657;-92
2022/08/19 05:26:46;;;;;;;8.70;3.60;;;;;;;28.44;52.20;98556.56;6190852;23;20597;-91
2022/08/19 05:29:12;;;;;;;9.88;4.28;;;;;;;28.57;51.46;98551.16;6190615;23;20152;-91
2022/08/19 05:31:38;;;;;;;7.15;4.22;;;;;;;28.63;51.25;98553.06;6190528;23;20157;-90
2022/08/19 05:34:04;;;;;;;7.07;3.45;;;;;;;28.73;50.66;98551.78;6190586;23;20157;-91
2022/08/19 05:36:34;;;;;;;6.65;3.83;;;;;;;28.77;49.87;98553.88;6190420;23;20235;-90
2022/08/19 05:39:01;;;;;;;6.68;3.90;;;;;;;28.89;49.43;98545.94;6190547;23;20153;-92
2022/08/19 05:41:30;;;;;;;5.15;3.58;;;;;;;28.95;50.17;98543.22;6216724;23;20609;-90
2022/08/19 05:44:02;;;;;;;5.75;3.42;;;;;;;29.16;49.24;98547.53;6190357;23;20168;-91
2022/08/19 05:46:28;;;;;;;7.03;4.05;;;;;;;29.32;48.91;98547.09;6190286;23;20190;-90
2022/08/19 05:48:56;;;;;;;5.15;3.22;;;;;;;29.46;48.59;98553.22;6190343;23;20153;-90
2022/08/19 05:51:22;;;;;;;6.72;4.35;;;;;;;29.49;48.18;98556.34;6216467;23;20245;-90
2022/08/19 05:53:47;;;;;;;6.75;3.55;;;;;;;29.60;47.96;98552.97;6216487;23;20145;-90
2022/08/19 05:56:15;;;;;;;7.93;4.15;;;;;;;29.70;47.94;98556.03;6216527;23;20153;-91
2022/08/19 05:58:44;;;;;;;8.18;4.13;;;;;;;29.79;47.23;98570.97;6190266;23;20495;-91
2022/08/19 06:01:12;;;;;;;6.25;3.70;;;;;;;29.85;47.19;98573.88;6190174;23;20215;-92
2022/08/19 06:03:38;;;;;;;7.07;4.05;;;;;;;30.01;46.14;98567.91;6190111;23;20150;-92
2022/08/19 06:06:05;;;;;;;7.32;4.40;;;;;;;29.94;46.71;98567.97;6190090;23;20190;-91
2022/08/19 06:08:30;;;;;;;8.45;4.22;;;;;;;30.06;46.39;98568.13;6217007;23;20188;-90
2022/08/19 06:10:56;;;;;;;6.28;3.65;;;;;;;30.23;45.93;98572.75;6190421;23;20150;-92
2022/08/19 06:13:25;;;;;;;6.72;3.90;;;;;;;30.46;45.35;98574.06;6216344;23;20150;-90
2022/08/19 06:15:51;;;;;;;6.53;4.00;;;;;;;30.38;45.61;98575.16;6216230;23;20524;-89
2022/08/19 06:18:16;;;;;;;6.35;3.53;;;;;;;30.56;45.37;98577.91;6216532;23;20212;-91
2022/08/19 06:20:42;;;;;;;8.93;4.28;;;;;;;30.80;44.49;98579.78;6216207;23;20153;-91
2022/08/19 06:23:08;;;;;;;8.55;4.00;;;;;;;31.01;43.87;98575.84;6216294;23;20168;-91
2022/08/19 06:25:34;;;;;;;6.57;3.20;;;;;;;31.23;43.89;98578.94;6189920;23;20228;-89
2022/08/19 06:28:00;;;;;;;10.15;3.72;;;;;;;31.38;43.62;98574.81;6216161;23;20445;-91
2022/08/19 06:30:26;;;;;;;9.02;3.90;;;;;;;31.68;42.94;98577.59;6190149;23;20153;-90
2022/08/19 06:32:52;;;;;;;6.82;4.28;;;;;;;32.10;41.97;98582.00;6216021;23;20181;-89
2022/08/19 06:35:17;;;;;;;6.85;3.95;;;;;;;32.42;41.59;98573.56;6216020;23;20592;-90
2022/08/19 06:37:44;;;;;;;13.00;4.32;;;;;;;32.80;40.87;98584.84;6189719;23;20233;-93
2022/08/19 06:40:10;;;;;;;6.80;4.07;;;;;;;33.17;39.56;98582.72;6216881;23;20469;-92
2022/08/19 06:42:38;;;;;;;9.43;4.57;;;;;;;33.64;38.65;98583.47;6216676;23;20574;-93
2022/08/19 06:45:05;;;;;;;8.60;4.22;;;;;;;34.03;38.43;98588.03;6190078;23;20201;-90
2022/08/19 06:47:32;;;;;;;8.50;4.50;;;;;;;34.46;37.77;98585.53;6216851;23;20224;-91
2022/08/19 06:50:01;;;;;;;6.53;3.67;;;;;;;34.67;36.77;98578.56;6216330;23;20196;-91
2022/08/19 06:52:27;;;;;;;7.05;4.15;;;;;;;34.93;36.00;98577.06;6189768;23;20227;-91
2022/08/19 06:54:54;;;;;;;7.05;4.13;;;;;;;35.15;34.78;98577.94;6216078;23;20509;-91
2022/08/19 06:57:19;;;;;;;9.02;3.78;;;;;;;35.30;34.90;98582.78;6189650;23;20150;-91
2022/08/19 06:59:45;;;;;;;7.53;3.78;;;;;;;35.47;35.00;98578.06;6189841;23;20188;-92
2022/08/19 07:02:10;;;;;;;7.60;4.22;;;;;;;35.76;34.63;98580.38;6189944;23;20462;-92
2022/08/19 07:04:38;;;;;;;8.90;5.18;;;;;;;36.00;33.98;98574.63;6216286;23;20227;-92
2022/08/19 07:07:09;;;;;;;7.68;4.50;;;;;;;36.19;34.02;98578.66;6189908;23;20222;-91
2022/08/19 07:09:41;;;;;;;7.32;3.45;;;;;;;36.43;34.23;98582.69;6189553;23;20161;-91
2022/08/19 07:12:10;;;;;;;8.50;3.35;;;;;;;36.70;32.94;98579.91;6189856;23;20249;-92
2022/08/19 07:14:37;;;;;;;5.63;3.63;;;;;;;36.87;32.74;98583.34;6215800;23;20142;-91
2022/08/19 07:17:06;;;;;;;8.23;4.38;;;;;;;36.87;32.19;98573.19;6215946;23;20188;-94
2022/08/19 07:19:32;;;;;;;6.03;3.53;;;;;;;36.93;32.31;98574.06;6216271;23;20159;-91
2022/08/19 07:22:01;;;;;;;6.75;4.18;;;;;;;36.74;32.80;98573.66;6190208;23;20192;-94
2022/08/19 07:24:28;;;;;;;7.68;3.45;;;;;;;36.76;32.59;98571.50;6189451;23;20165;-92
2022/08/19 07:26:56;;;;;;;4.97;3.03;;;;;;;36.94;32.25;98567.53;6216074;23;20146;-94
2022/08/19 07:29:23;;;;;;;5.72;3.53;;;;;;;37.05;32.32;98562.97;6190494;23;20236;-91
2022/08/19 07:31:56;;;;;;;5.25;2.95;;;;;;;37.21;32.79;98567.44;6191912;23;20150;-93
2022/08/19 07:34:22;;;;;;;6.95;3.47;;;;;;;37.08;31.71;98562.44;6218528;23;20168;-94
2022/08/19 07:36:49;;;;;;;6.57;3.75;;;;;;;37.10;32.00;98561.09;6192119;23;20153;-91
2022/08/19 07:39:19;;;;;;;7.50;4.32;;;;;;;37.40;32.56;98565.84;6191635;23;20624;-91
2022/08/19 07:41:45;;;;;;;6.93;3.60;;;;;;;37.68;31.57;98570.94;6218283;23;20134;-93
2022/08/19 07:44:12;;;;;;;6.78;3.58;;;;;;;37.78;30.78;98570.97;6192058;23;20173;-93
2022/08/19 07:46:41;;;;;;;10.73;3.50;;;;;;;37.96;30.45;98575.97;6191886;23;20490;-93
2022/08/19 07:49:08;;;;;;;4.55;3.00;;;;;;;37.94;29.92;98574.59;6191656;23;20164;-91
2022/08/19 07:51:34;;;;;;;6.88;3.58;;;;;;;38.06;30.40;98566.94;6191736;23;20581;-93
2022/08/19 07:53:59;;;;;;;7.60;3.15;;;;;;;38.29;30.38;98563.66;6191872;23;20566;-94
2022/08/19 07:56:26;;;;;;;3.83;2.72;;;;;;;38.29;29.71;98565.59;6161918;23;20605;-91
2022/08/19 07:58:52;;;;;;;4.88;3.22;;;;;;;38.16;30.52;98564.19;6162011;23;20170;-92
2022/08/19 08:01:25;;;;;;;4.70;3.00;;;;;;;38.27;30.40;98562.28;6188218;23;20168;-92
2022/08/19 08:09:42;;;;;;;7.78;3.47;;;;;;;38.59;30.26;98562.88;6187505;23;20152;-91
2022/08/19 08:12:12;;;;;;;5.57;3.47;;;;;;;38.81;29.46;98557.97;6187885;23;20138;-92
2022/08/19 08:14:47;;;;;;;4.90;2.92;;;;;;;38.67;28.82;98559.59;6187515;23;20658;-92
2022/08/19 08:17:15;;;;;;;7.28;4.10;;;;;;;38.69;29.57;98563.69;6161623;23;20241;-91
2022/08/19 08:19:42;;;;;;;5.13;3.30;;;;;;;38.60;29.63;98557.09;6187470;23;20611;-93
2022/08/19 08:23:21;;;;;;;4.47;3.20;;;;;;;38.93;29.69;98558.47;6161957;23;20154;-92
2022/08/19 08:24:54;;;;;;;6.13;3.22;;;;;;;38.73;29.08;98559.28;6187740;23;20269;-96
2022/08/19 08:27:20;;;;;;;6.05;3.15;;;;;;;38.66;28.98;98560.66;6161931;23;20490;-93
2022/08/19 08:29:45;;;;;;;9.27;3.67;;;;;;;38.80;29.35;98552.75;6162012;23;20492;-94
2022/08/19 08:32:10;;;;;;;8.07;3.85;;;;;;;38.95;28.56;98550.78;6161661;23;20151;-92
2022/08/19 08:34:36;;;;;;;8.13;3.88;;;;;;;39.05;28.76;98550.75;6187562;23;20151;-91
2022/08/19 08:37:03;;;;;;;6.50;3.50;;;;;;;38.93;28.67;98542.03;6161651;23;20485;-92
2022/08/19 08:39:28;;;;;;;5.07;3.42;;;;;;;38.73;29.02;98553.00;6187464;23;20147;-91
2022/08/19 08:41:57;;;;;;;5.18;3.30;;;;;;;39.00;29.25;98541.72;6161110;23;20193;-91
2022/08/19 08:44:40;;;;;;;5.03;3.30;;;;;;;39.35;28.90;98543.56;6161594;23;20566;-91
2022/08/19 08:47:12;;;;;;;5.55;3.58;;;;;;;39.46;27.70;98535.00;6187637;23;20135;-91
2022/08/19 08:49:59;;;;;;;7.32;3.60;;;;;;;39.43;27.46;98534.75;6161392;23;20174;-91
2022/08/19 08:52:28;;;;;;;5.18;3.67;;;;;;;39.42;27.58;98531.16;6187336;23;20190;-92
2022/08/19 08:54:58;;;;;;;10.27;4.40;;;;;;;39.53;28.32;98526.47;6161535;23;20597;-92
2022/08/19 08:57:54;;;;;;;7.05;3.47;;;;;;;39.64;27.16;98525.34;6186878;23;20162;-90
2022/08/19 09:00:36;;;;;;;4.95;3.60;;;;;;;39.78;26.41;98534.59;6162270;23;20472;-90
2022/08/19 09:03:16;;;;;;;5.90;3.50;;;;;;;39.48;27.72;98530.06;6187335;23;20606;-90
2022/08/19 09:05:55;;;;;;;5.13;3.42;;;;;;;39.31;27.43;98526.84;6187008;23;20181;-90
2022/08/19 09:08:43;;;;;;;6.47;3.00;;;;;;;39.62;26.60;98527.56;6187012;23;20513;-92
2022/08/19 09:11:14;;;;;;;7.43;3.55;;;;;;;39.58;25.80;98529.16;6187228;23;20139;-92
2022/08/19 09:13:52;;;;;;;4.68;3.05;;;;;;;39.60;27.28;98524.25;6161092;23;20563;-91
2022/08/19 09:16:20;;;;;;;4.07;3.13;;;;;;;39.69;26.99;98519.81;6186737;23;20142;-90
2022/08/19 09:18:53;;;;;;;4.30;2.88;;;;;;;39.88;25.44;98521.63;6160971;23;20154;-93
2022/08/19 09:21:22;;;;;;;4.60;3.03;;;;;;;40.00;25.92;98524.00;6161163;23;20143;-92
2022/08/19 09:23:48;;;;;;;4.28;3.00;;;;;;;40.06;25.10;98522.06;6160876;23;20154;-94
2022/08/19 09:26:17;;;;;;;5.03;2.88;;;;;;;40.35;25.23;98521.00;6161112;23;20611;-91
2022/08/19 09:28:45;;;;;;;4.15;2.53;;;;;;;40.41;24.44;98517.09;6160825;23;20210;-93
2022/08/19 09:31:13;;;;;;;3.92;2.80;;;;;;;40.29;24.81;98515.84;6160856;23;20162;-92
2022/08/19 09:33:38;;;;;;;4.10;2.53;;;;;;;40.34;24.59;98513.88;6160802;23;20466;-92
2022/08/19 09:36:09;;;;;;;6.65;3.08;;;;;;;40.62;24.56;98514.19;6186955;23;20230;-92
2022/08/19 09:38:36;;;;;;;7.10;3.05;;;;;;;40.41;24.62;98514.34;6186977;23;20159;-92
2022/08/19 09:41:06;;;;;;;6.45;3.22;;;;;;;40.62;24.23;98505.97;6160954;23;20173;-93
2022/08/19 09:43:36;;;;;;;5.50;2.90;;;;;;;40.84;23.88;98506.25;6187007;23;20162;-92
2022/08/19 09:46:05;;;;;;;4.65;2.83;;;;;;;40.85;24.00;98502.41;6186596;23;20257;-93
2022/08/19 09:48:31;;;;;;;4.78;2.83;;;;;;;40.95;23.69;98500.38;6161039;23;20536;-93
2022/08/19 09:51:07;;;;;;;5.18;3.25;;;;;;;41.03;24.05;98499.75;6160691;23;20170;-94
2022/08/19 09:53:37;;;;;;;4.95;3.10;;;;;;;41.09;23.70;98498.56;6160946;23;20147;-93
2022/08/19 09:56:05;;;;;;;5.15;3.50;;;;;;;40.70;23.91;98492.38;6166985;23;20162;-94
2022/08/19 09:58:31;;;;;;;7.05;2.88;;;;;;;40.11;24.13;98503.63;6176100;23;20170;-96
2022/08/19 10:00:58;;;;;;;3.85;2.70;;;;;;;40.29;24.36;98500.19;6166458;23;20159;-92
2022/08/19 10:03:24;;;;;;;4.30;2.88;;;;;;;40.68;23.51;98496.53;6162120;23;20166;-96
2022/08/19 10:05:50;;;;;;;4.38;2.67;;;;;;;40.73;23.61;98488.22;6163318;23;20213;-96
2022/08/19 10:08:21;;;;;;;6.45;3.10;;;;;;;40.86;24.21;98484.78;6165882;23;20166;-93
2022/08/19 10:10:47;;;;;;;6.72;3.28;;;;;;;40.92;24.08;98483.66;6163254;23;20165;-93
2022/08/19 10:13:16;;;;;;;5.57;2.83;;;;;;;41.03;23.65;98476.91;6188776;23;20150;-95
2022/08/19 10:15:50;;;;;;;4.15;2.95;;;;;;;40.46;24.39;98478.56;6154168;23;20184;-95
2022/08/19 10:18:17;;;;;;;4.72;3.05;;;;;;;40.58;24.97;98480.16;6163511;23;20151;-93
2022/08/19 10:20:45;;;;;;;4.57;3.00;;;;;;;40.80;24.06;98480.47;6158213;23;20162;-95
2022/08/19 10:23:11;;;;;;;4.70;2.40;;;;;;;40.92;24.13;98475.41;6158702;23;20233;-93
2022/08/19 10:25:37;;;;;;;3.90;2.67;;;;;;;41.16;24.35;98470.69;6155482;23;20175;-93
2022/08/19 10:28:06;;;;;;;4.88;2.67;;;;;;;41.01;23.42;98479.94;6164839;23;20151;-96
2022/08/19 10:30:32;;;;;;;5.35;2.67;;;;;;;41.20;23.29;98477.25;6170057;23;20159;-96
2022/08/19 10:32:57;;;;;;;3.60;2.60;;;;;;;41.39;22.67;98477.28;6167511;23;20270;-94
2022/08/19 10:35:24;;;;;;;4.05;2.60;;;;;;;41.57;23.46;98482.00;6161301;23;20448;-94
2022/08/19 10:37:50;;;;;;;5.10;3.00;;;;;;;41.28;23.10;98468.31;6156720;23;20287;-92
2022/08/19 10:40:15;;;;;;;3.85;2.45;;;;;;;41.43;23.12;98470.09;6155694;23;20322;-93
2022/08/19 10:42:41;;;;;;;4.53;2.83;;;;;;;41.65;22.99;98467.56;6155750;23;20151;-93
2022/08/19 10:45:09;;;;;;;4.95;2.63;;;;;;;41.23;22.90;98459.31;6172813;23;20191;-95
2022/08/19 10:47:37;;;;;;;4.60;3.15;;;;;;;41.47;22.89;98463.69;6163212;23;20275;-94
2022/08/19 10:52:49;;;;;;;4.50;2.60;;;;;;;41.92;22.43;98459.47;6157656;23;20209;-94
2022/08/19 10:57:59;;;;;;;3.95;2.70;;;;;;;42.37;22.48;98457.91;6157141;23;20282;-90
2022/08/19 11:00:25;;;;;;;4.03;2.58;;;;;;;42.38;21.97;98454.00;6157520;23;20591;-93
2022/08/19 11:02:51;;;;;;;4.57;2.80;;;;;;;42.20;22.27;98457.63;6155335;23;20158;-91
2022/08/19 11:05:18;;;;;;;4.70;2.90;;;;;;;42.05;22.70;98441.34;6155890;23;20178;-90
2022/08/19 11:07:44;;;;;;;4.35;3.10;;;;;;;42.15;22.34;98443.94;6155408;23;20179;-91
2022/08/19 11:10:12;;;;;;;7.05;3.30;;;;;;;42.10;22.29;98441.25;6155824;23;20155;-91
2022/08/19 11:12:42;;;;;;;4.40;3.10;;;;;;;42.23;21.85;98443.25;6156374;23;20159;-93
2022/08/19 11:15:10;;;;;;;5.53;3.60;;;;;;;41.99;22.40;98440.63;6160367;23;20212;-92
2022/08/19 11:17:43;;;;;;;4.63;2.97;;;;;;;41.98;22.46;98446.44;6155525;23;20169;-95
2022/08/19 11:20:14;;;;;;;3.90;2.83;;;;;;;41.95;22.19;98441.53;6155225;23;20162;-91
2022/08/19 11:22:40;;;;;;;6.00;2.88;;;;;;;42.22;21.88;98441.63;6157363;23;20182;-92
2022/08/19 11:25:06;;;;;;;5.65;3.30;;;;;;;42.31;22.04;98431.53;6155047;23;20182;-92
2022/08/19 11:27:31;;;;;;;5.50;3.20;;;;;;;42.44;21.81;98428.00;6156814;23;20147;-90
2022/08/19 11:29:57;;;;;;;5.18;3.38;;;;;;;42.57;21.41;98416.19;6156596;23;20165;-91
2022/08/19 11:32:22;;;;;;;5.53;2.85;;;;;;;41.87;21.75;98414.66;6165451;23;20155;-92
2022/08/19 11:34:48;;;;;;;4.85;3.17;;;;;;;41.10;22.77;98422.38;6168140;23;20162;-95
2022/08/19 11:37:13;;;;;;;3.67;2.58;;;;;;;41.61;22.68;98423.31;6160029;23;20165;-92
2022/08/19 11:39:39;;;;;;;3.85;2.67;;;;;;;42.09;22.01;98420.34;6157937;23;20222;-93
2022/08/19 11:42:55;;;;;;;4.40;2.80;;;;;;;41.89;21.83;98406.91;6169041;23;20203;-95
2022/08/19 11:44:52;;;;;;;4.57;2.92;;;;;;;41.64;22.55;98411.69;6155876;23;20193;-90
2022/08/19 11:47:18;;;;;;;4.85;3.25;;;;;;;42.03;22.28;98413.28;6156013;23;20151;-90
2022/08/19 11:49:45;;;;;;;8.77;3.17;;;;;;;42.19;22.14;98400.91;6156007;23;20155;-90
2022/08/19 11:52:11;;;;;;;5.88;3.42;;;;;;;42.45;21.27;98404.84;6134164;23;20161;-94
2022/08/19 11:54:36;;;;;;;5.18;3.10;;;;;;;42.68;21.42;98401.09;6132694;23;20157;-92
2022/08/19 11:57:03;;;;;;;4.68;2.75;;;;;;;42.81;21.19;98392.00;6130559;23;20151;-92